Aérodrome :
LOGIN :

S'inscrire | Disclaimer

   EN    FR    IT 

 










Légende :    VFR   VFR Marginal   IFR   IFR Intensif   IFR Très Intensif
Visi : 
Plafond : 
>= 8 km
>= 3000ft
5 à 8 km
1000 à 3000 ft
1500m à 5 km
500 à 1000 ft
800 à 1500m
200 à 500 ft
< 800m
< 200 ft
Symboles :   Orages  Brouillard  Fortes neiges  Fortes précipitations  Vent > 20 kt
SIGMETs :   Divers  Orages  Givrage  Turbulence  Onde Orograph.  Cendres Volcan.






- Altitude de l'aérodrome : 287 ft


LFRL - Lanveoc Poulmic

DERNIER METAR :
  • 172130Z AUTO 28011KT CAVOK 08/03 Q1026

METARs EXPIRÉS :
  • 172100Z AUTO 28012KT CAVOK 08/03 Q1025
  • 172030Z AUTO 28013KT CAVOK 08/03 Q1025
  • 172000Z AUTO 27014KT 9999 FEW014/// SCT035/// BKN050/// ///TCU 08/03 Q1025
  • 171930Z AUTO 28015KT 9999 FEW038/// ///TCU 08/03 Q1025
  • 171900Z AUTO 28017KT 9999 SCT033/// BKN041/// BKN056/// ///CB 08/03 Q1025

TAF TAF LFRL
Valide du 17 à 12h jusqu'au 18 à 12h UTC


171100Z 1712/1812 27015KT 9999 SCT020TCU SCT030
TEMPO 1712/1724 27015G25KT 3000 SHRA SCT015CB BKN020
PROB40
TEMPO 1712/1718 27015G30KT 2000 TSGSRA BKN015CB
BECMG 1723/1801 VRB03KT SCT020 BKN040
BECMG 1807/1809 09010KT



MET'MAP, la Météo Aéronautique d'un coup d'oeil ! - Copyright ORBIFLY Décembre 2007 - Disclaimer

ORBIFLY MET'MAP TEAM :

Programmation & Développement : Alexandra Zaïnal
Sur une idée originale de : Baudouin d'Aumeries
Assistance à la programmation : Marc-Olivier Méhu
Soutien technique & logistique : Manuel Goepfert

Contact : metmap@orbifly.com




SOURCES & CREDITS :

   NOAA